createdAt,value
2022-11-12T00:00:20.773Z,63.25
2022-11-12T00:03:27.561Z,63.47
2022-11-12T00:06:33.936Z,63.66
2022-11-12T00:09:38.510Z,63.63
2022-11-12T00:12:44.843Z,64.07
2022-11-12T00:15:49.402Z,64.11
2022-11-12T00:18:55.731Z,63.95
2022-11-12T00:22:00.425Z,63.81
2022-11-12T00:25:08.319Z,63.81
2022-11-12T00:28:14.817Z,63.74
2022-11-12T00:31:21.165Z,63.37
2022-11-12T00:34:25.858Z,63.59
2022-11-12T00:37:32.166Z,63.67
2022-11-12T00:40:36.788Z,63.65
2022-11-12T00:43:42.988Z,63.67
2022-11-12T00:46:49.761Z,63.16
2022-11-12T00:49:56.158Z,63.03
2022-11-12T00:53:00.723Z,63.31
2022-11-12T00:56:09.454Z,63.32
2022-11-12T00:59:16.090Z,63.15
2022-11-12T01:02:22.395Z,63.20
2022-11-12T01:05:26.982Z,63.03
2022-11-12T01:08:34.083Z,63.04
2022-11-12T01:11:42.273Z,63.08
2022-11-12T01:14:48.533Z,63.09
2022-11-12T01:17:54.889Z,63.24
2022-11-12T01:21:01.386Z,63.52
2022-11-12T01:24:08.786Z,63.46
2022-11-12T01:27:15.142Z,63.36
2022-11-12T01:30:19.918Z,63.30
2022-11-12T01:33:26.199Z,63.70
2022-11-12T01:36:35.703Z,63.99
2022-11-12T01:39:42.060Z,63.86
2022-11-12T01:42:52.626Z,63.96
2022-11-12T01:46:01.385Z,63.72
2022-11-12T01:49:12.362Z,63.49
2022-11-12T01:52:23.021Z,63.43
2022-11-12T01:55:33.867Z,63.42
2022-11-12T01:58:41.663Z,63.83
2022-11-12T02:01:48.023Z,63.93
2022-11-12T02:04:53.020Z,63.93
2022-11-12T02:08:02.110Z,64.18
2022-11-12T02:11:17.382Z,64.21
2022-11-12T02:14:24.468Z,64.15
2022-11-12T02:17:30.753Z,64.03
2022-11-12T02:20:39.061Z,63.85
2022-11-12T02:23:45.352Z,63.94
2022-11-12T02:26:55.465Z,63.82
2022-11-12T02:30:01.811Z,63.88
2022-11-12T02:33:06.467Z,64.12
2022-11-12T02:36:13.039Z,64.42
2022-11-12T02:39:19.894Z,64.50
2022-11-12T02:42:26.198Z,64.57
2022-11-12T02:45:34.808Z,64.30
2022-11-12T02:48:41.328Z,64.62
2022-11-12T02:51:47.717Z,64.62
2022-11-12T02:54:52.318Z,64.69
2022-11-12T02:58:01.762Z,64.76
2022-11-12T03:01:08.429Z,64.72
2022-11-12T03:04:14.817Z,64.73
2022-11-12T03:07:19.499Z,64.66
2022-11-12T03:10:26.162Z,64.25
2022-11-12T03:13:32.491Z,64.38
2022-11-12T03:16:37.074Z,64.01
2022-11-12T03:19:43.406Z,64.01
2022-11-12T03:22:55.912Z,63.71
2022-11-12T03:26:03.228Z,63.97
2022-11-12T03:29:09.556Z,63.81
2022-11-12T03:32:14.145Z,63.94
2022-11-12T03:35:20.593Z,64.30
2022-11-12T03:38:27.168Z,64.12
2022-11-12T03:41:33.815Z,64.08
2022-11-12T03:44:38.388Z,63.76
2022-11-12T03:47:46.887Z,63.86
2022-11-12T03:50:53.406Z,63.85
2022-11-12T03:53:59.811Z,64.18
2022-11-12T03:57:04.569Z,64.60
2022-11-12T04:00:13.289Z,64.38
2022-11-12T04:03:19.611Z,63.81
2022-11-12T04:06:41.722Z,63.44
2022-11-12T04:09:48.116Z,63.32
2022-11-12T04:13:12.144Z,63.31
2022-11-12T04:16:37.565Z,63.44
2022-11-12T04:20:01.235Z,63.28
2022-11-12T04:23:07.496Z,63.52
2022-11-12T04:26:26.160Z,63.51
2022-11-12T04:29:49.935Z,63.15
2022-11-12T04:32:57.036Z,63.07
2022-11-12T04:36:03.398Z,63.67
2022-11-12T04:39:09.874Z,63.97
2022-11-12T04:42:33.841Z,63.82
2022-11-12T04:45:42.047Z,63.35
2022-11-12T04:48:48.367Z,62.93
2022-11-12T04:52:08.011Z,63.01
2022-11-12T04:55:14.629Z,62.95
2022-11-12T04:58:21.326Z,63.22
2022-11-12T05:01:27.640Z,63.34
2022-11-12T05:04:32.183Z,63.53
2022-11-12T05:07:38.470Z,63.74
2022-11-12T05:10:43.078Z,63.71
2022-11-12T05:13:49.436Z,63.97
2022-11-12T05:16:53.962Z,64.21
2022-11-12T05:20:00.243Z,64.29
2022-11-12T05:23:07.420Z,64.57
2022-11-12T05:26:14.110Z,65.38
2022-11-12T05:29:21.042Z,65.72
2022-11-12T05:32:27.994Z,64.93
2022-11-12T05:35:34.292Z,64.54
2022-11-12T05:38:39.534Z,64.55
2022-11-12T05:42:11.303Z,64.43
2022-11-12T05:45:13.144Z,63.80
2022-11-12T05:48:24.203Z,63.50
2022-11-12T05:51:30.989Z,63.01
2022-11-12T06:07:12.181Z,64.90
2022-11-12T06:10:20.668Z,64.98
2022-11-12T06:13:28.885Z,65.00
2022-11-12T06:16:35.410Z,65.50
2022-11-12T06:19:41.800Z,65.88
2022-11-12T06:22:46.186Z,65.64
2022-11-12T06:25:52.320Z,65.26
2022-11-12T06:28:58.738Z,64.67
2022-11-12T06:32:05.159Z,64.63
2022-11-12T06:35:10.505Z,64.72
2022-11-12T06:38:16.672Z,65.03
2022-11-12T06:41:22.962Z,65.87
2022-11-12T06:44:27.462Z,66.36
2022-11-12T06:47:33.776Z,65.77
2022-11-12T06:50:38.385Z,65.22
2022-11-12T06:53:44.997Z,65.35
2022-11-12T06:56:51.503Z,65.28
2022-11-12T06:59:57.807Z,65.26
2022-11-12T07:03:06.617Z,65.27
2022-11-12T07:06:14.687Z,65.85
2022-11-12T07:09:21.363Z,65.79
2022-11-12T07:12:27.698Z,65.67
2022-11-12T07:15:32.359Z,65.94
2022-11-12T07:18:39.021Z,66.48
2022-11-12T07:21:45.092Z,66.72
2022-11-12T07:24:51.438Z,66.91
2022-11-12T07:27:56.415Z,67.19
2022-11-12T07:31:05.018Z,67.64
2022-11-12T07:34:11.409Z,67.85
2022-11-12T07:37:15.959Z,68.14
2022-11-12T07:40:22.533Z,68.55
2022-11-12T07:43:28.825Z,69.18
2022-11-12T07:46:33.552Z,69.61
2022-11-12T07:49:39.955Z,70.17
2022-11-12T07:52:44.685Z,70.24
2022-11-12T07:55:58.427Z,70.31
2022-11-12T07:59:06.004Z,70.32
2022-11-12T08:02:13.049Z,70.21
2022-11-12T08:05:21.544Z,70.69
2022-11-12T08:08:28.453Z,70.78
2022-11-12T08:11:35.303Z,71.34
2022-11-12T08:14:41.605Z,71.73
2022-11-12T08:17:46.281Z,71.95
2022-11-12T08:20:52.600Z,72.29
2022-11-12T08:23:57.205Z,72.02
2022-11-12T08:27:03.483Z,72.39
2022-11-12T08:30:12.246Z,72.57
2022-11-12T08:33:18.591Z,72.79
2022-11-12T08:36:23.210Z,73.27
2022-11-12T08:39:29.603Z,73.92
2022-11-12T08:42:34.260Z,73.92
2022-11-12T08:45:42.214Z,74.24
2022-11-12T08:48:48.492Z,74.42
2022-11-12T08:51:54.955Z,74.51
2022-11-12T08:55:01.318Z,74.65
2022-11-12T08:58:06.036Z,74.62
2022-11-12T09:01:12.361Z,74.38
2022-11-12T09:04:16.943Z,73.69
2022-11-12T09:07:48.918Z,73.25
2022-11-12T09:10:50.112Z,72.19
2022-11-12T09:13:57.294Z,71.58
2022-11-12T09:17:03.618Z,70.88
2022-11-12T09:20:09.059Z,70.57
2022-11-12T09:23:17.860Z,70.06
2022-11-12T09:26:24.305Z,68.95
2022-11-12T09:29:28.885Z,68.31
2022-11-12T09:32:35.370Z,68.12
2022-11-12T09:35:41.790Z,67.38
2022-11-12T09:38:48.106Z,66.76
2022-11-12T09:41:55.499Z,66.19
2022-11-12T09:45:08.948Z,66.24
2022-11-12T09:48:21.821Z,64.91
2022-11-12T09:51:33.997Z,64.31
2022-11-12T09:54:40.981Z,64.38
2022-11-12T09:57:47.607Z,63.71
2022-11-12T10:00:59.193Z,63.51
2022-11-12T10:04:17.901Z,63.32
2022-11-12T10:07:37.921Z,63.31
2022-11-12T10:10:48.566Z,62.76
2022-11-12T10:14:09.976Z,62.17
2022-11-12T10:17:28.834Z,61.56
2022-11-12T10:20:43.717Z,61.31
2022-11-12T10:23:54.273Z,61.33
2022-11-12T10:27:00.695Z,61.02
2022-11-12T10:30:14.887Z,60.79
2022-11-12T10:33:20.512Z,60.26
2022-11-12T10:36:31.526Z,60.35
2022-11-12T10:39:42.810Z,60.28
2022-11-12T10:43:00.900Z,58.62
2022-11-12T10:46:21.395Z,58.98
2022-11-12T10:49:27.720Z,59.34
2022-11-12T10:52:33.577Z,62.07
2022-11-12T10:55:55.406Z,62.48
2022-11-12T10:59:17.725Z,61.43
2022-11-12T11:02:23.422Z,60.66
2022-11-12T11:05:36.888Z,59.97
2022-11-12T11:08:45.179Z,59.16
2022-11-12T11:11:54.755Z,58.24
2022-11-12T11:15:20.113Z,58.26
2022-11-12T11:18:26.414Z,60.40
2022-11-12T11:21:58.819Z,60.59
2022-11-12T11:25:20.964Z,60.03
2022-11-12T11:28:34.694Z,56.78
2022-11-12T11:31:46.945Z,57.66
2022-11-12T11:35:03.226Z,59.34
2022-11-12T11:38:23.330Z,60.37
2022-11-12T11:41:45.778Z,60.96
2022-11-12T11:45:00.945Z,58.75
2022-11-12T11:48:14.983Z,57.43
2022-11-12T11:51:37.331Z,57.98
2022-11-12T11:55:03.144Z,60.40
2022-11-12T11:58:19.974Z,60.11
2022-11-12T12:01:33.808Z,57.40
2022-11-12T12:04:52.503Z,57.42
2022-11-12T12:08:04.080Z,58.00
2022-11-12T12:11:17.815Z,59.25
2022-11-12T12:14:42.793Z,60.74
2022-11-12T12:18:02.433Z,60.26
2022-11-12T12:21:15.730Z,58.71
2022-11-12T12:24:25.195Z,57.25
2022-11-12T12:27:36.047Z,56.48
2022-11-12T12:30:46.485Z,57.59
2022-11-12T12:33:56.448Z,59.51
2022-11-12T12:37:08.341Z,60.33
2022-11-12T12:40:22.289Z,59.77
2022-11-12T12:43:34.449Z,59.23
2022-11-12T12:46:45.686Z,56.86
2022-11-12T12:49:52.821Z,56.74
2022-11-12T12:53:07.250Z,58.01
2022-11-12T12:56:47.173Z,57.65
2022-11-12T12:59:52.865Z,57.71
2022-11-12T13:02:59.607Z,58.72
2022-11-12T13:06:23.074Z,59.35
2022-11-12T13:09:29.642Z,59.74
2022-11-12T13:13:04.664Z,59.16
2022-11-12T13:16:10.772Z,60.81
2022-11-12T13:19:27.581Z,60.42
2022-11-12T13:22:52.573Z,59.14
2022-11-12T13:26:35.511Z,56.69
2022-11-12T13:29:46.213Z,57.04
2022-11-12T13:32:59.130Z,57.67
2022-11-12T13:36:29.954Z,59.07
2022-11-12T13:39:38.338Z,58.76
2022-11-12T13:42:50.263Z,59.75
2022-11-12T13:46:00.405Z,59.77
2022-11-12T13:49:10.666Z,61.86
2022-11-12T13:52:19.917Z,61.24
2022-11-12T13:55:25.553Z,59.93
2022-11-12T13:58:33.444Z,57.49
2022-11-12T14:01:41.175Z,57.10
2022-11-12T14:04:47.154Z,58.10
2022-11-12T14:08:04.340Z,58.73
2022-11-12T14:11:25.144Z,59.26
2022-11-12T14:14:45.868Z,59.19
2022-11-12T14:17:59.508Z,59.44
2022-11-12T14:21:12.419Z,60.10
2022-11-12T14:24:18.137Z,61.49
2022-11-12T14:27:36.738Z,62.08
2022-11-12T14:30:47.653Z,60.56
2022-11-12T14:33:53.232Z,58.55
2022-11-12T14:36:59.221Z,57.62
2022-11-12T14:40:05.787Z,58.59
2022-11-12T14:43:27.387Z,59.01
2022-11-12T14:46:39.703Z,59.21
2022-11-12T14:49:49.160Z,59.95
2022-11-12T14:53:00.562Z,62.11
2022-11-12T14:56:08.604Z,62.69
2022-11-12T14:59:15.674Z,61.51
2022-11-12T15:02:36.053Z,60.22
2022-11-12T15:06:10.673Z,59.67
2022-11-12T15:09:21.986Z,58.24
2022-11-12T15:12:31.535Z,58.74
2022-11-12T15:15:38.674Z,59.61
2022-11-12T15:18:45.052Z,60.59
2022-11-12T15:21:53.374Z,62.88
2022-11-12T15:25:10.503Z,63.93
2022-11-12T15:28:22.188Z,62.40
2022-11-12T15:31:27.842Z,61.32
2022-11-12T15:34:48.087Z,60.61
2022-11-12T15:37:54.388Z,60.12
2022-11-12T15:41:00.993Z,59.71
2022-11-12T15:44:09.340Z,58.54
2022-11-12T15:47:21.890Z,58.66
2022-11-12T15:50:28.067Z,59.74
2022-11-12T15:53:32.080Z,61.02
2022-11-12T15:56:37.937Z,61.74
2022-11-12T15:59:44.803Z,64.78
2022-11-12T16:02:57.023Z,64.76
2022-11-12T16:06:08.645Z,63.36
2022-11-12T16:09:15.087Z,62.56
2022-11-12T16:12:21.146Z,61.86
2022-11-12T16:15:27.139Z,61.76
2022-11-12T16:18:32.776Z,61.66
2022-11-12T16:21:38.428Z,61.45
2022-11-12T16:24:44.775Z,61.06
2022-11-12T16:27:54.410Z,60.72
2022-11-12T16:31:01.338Z,60.78
2022-11-12T16:34:07.059Z,60.66
2022-11-12T16:37:14.001Z,60.55
2022-11-12T16:40:22.248Z,60.30
2022-11-12T16:43:28.190Z,59.58
2022-11-12T16:46:40.250Z,59.69
2022-11-12T16:49:45.860Z,58.60
2022-11-12T16:52:52.857Z,58.75
2022-11-12T16:55:59.262Z,59.94
2022-11-12T16:59:05.686Z,61.27
2022-11-12T17:02:16.744Z,63.66
2022-11-12T17:05:24.464Z,64.42
2022-11-12T17:08:33.968Z,63.90
2022-11-12T17:11:40.568Z,63.36
2022-11-12T17:14:46.153Z,62.22
2022-11-12T17:17:54.117Z,62.09
2022-11-12T17:21:07.263Z,62.11
2022-11-12T17:24:12.964Z,63.15
2022-11-12T17:27:18.674Z,62.55
2022-11-12T17:30:24.324Z,61.84
2022-11-12T17:33:30.326Z,61.50
2022-11-12T17:36:40.587Z,60.52
2022-11-12T17:39:49.057Z,60.99
2022-11-12T17:42:55.225Z,62.50
2022-11-12T17:46:01.290Z,62.39
2022-11-12T17:49:07.044Z,62.35
2022-11-12T17:52:12.679Z,61.81
2022-11-12T17:55:18.475Z,62.27
2022-11-12T17:58:24.057Z,63.53
2022-11-12T18:01:31.242Z,64.28
2022-11-12T18:04:37.100Z,64.32
2022-11-12T18:07:42.796Z,64.57
2022-11-12T18:10:48.449Z,64.13
2022-11-12T18:13:54.203Z,62.85
2022-11-12T18:17:01.453Z,62.16
2022-11-12T18:20:09.693Z,61.74
2022-11-12T18:23:15.565Z,61.33
2022-11-12T18:26:21.930Z,61.15
2022-11-12T18:29:26.045Z,60.99
2022-11-12T18:32:31.897Z,60.57
2022-11-12T18:35:37.760Z,60.25
2022-11-12T18:50:49.181Z,64.69
2022-11-12T18:53:54.782Z,65.09
2022-11-12T18:57:00.435Z,63.68
2022-11-12T19:00:07.167Z,62.88
2022-11-12T19:03:12.836Z,62.14
2022-11-12T19:06:18.477Z,61.57
2022-11-12T19:09:24.049Z,61.58
2022-11-12T19:12:29.722Z,61.42
2022-11-12T19:15:36.391Z,61.20
2022-11-12T19:18:43.374Z,61.14
2022-11-12T19:21:49.591Z,60.84
2022-11-12T19:24:55.294Z,60.60
2022-11-12T19:28:00.916Z,60.88
2022-11-12T19:31:08.627Z,60.83
2022-11-12T19:34:14.399Z,61.18
2022-11-12T19:37:33.007Z,61.58
2022-11-12T19:40:39.782Z,61.76
2022-11-12T19:43:45.587Z,61.80
2022-11-12T19:46:51.341Z,62.09
2022-11-12T19:49:56.993Z,62.22
2022-11-12T19:53:02.852Z,62.59
2022-11-12T19:56:09.402Z,63.18
2022-11-12T19:59:15.177Z,63.56
2022-11-12T20:02:21.454Z,63.58
2022-11-12T20:05:25.663Z,63.62
2022-11-12T20:08:32.338Z,64.09
2022-11-12T20:11:38.195Z,64.43
2022-11-12T20:14:43.949Z,64.51
2022-11-12T20:17:49.854Z,64.67
2022-11-12T20:20:57.799Z,64.81
2022-11-12T20:24:03.439Z,64.99
2022-11-12T20:27:09.115Z,65.05
2022-11-12T20:30:16.185Z,65.20
2022-11-12T20:33:22.010Z,65.17
2022-11-12T20:36:27.707Z,65.26
2022-11-12T20:39:33.871Z,65.46
2022-11-12T20:42:41.304Z,65.44
2022-11-12T20:45:52.950Z,65.41
2022-11-12T20:48:58.611Z,65.62
2022-11-12T20:52:04.225Z,65.48
2022-11-12T20:55:11.010Z,65.41
2022-11-12T20:58:16.613Z,65.38
2022-11-12T21:01:24.060Z,65.40
2022-11-12T21:04:29.745Z,65.45
2022-11-12T21:07:35.434Z,65.31
2022-11-12T21:10:41.061Z,65.35
2022-11-12T21:13:46.776Z,65.60
2022-11-12T21:16:52.445Z,65.91
2022-11-12T21:19:58.096Z,65.81
2022-11-12T21:23:03.737Z,65.88
2022-11-12T21:26:12.877Z,66.10
2022-11-12T21:29:19.201Z,66.14
2022-11-12T21:32:24.883Z,66.03
2022-11-12T21:35:30.553Z,66.12
2022-11-12T21:38:36.236Z,66.15
2022-11-12T21:41:41.845Z,66.04
2022-11-12T21:44:47.445Z,66.00
2022-11-12T21:47:54.367Z,66.25
2022-11-12T21:51:06.313Z,66.29
2022-11-12T21:54:15.091Z,66.30
2022-11-12T21:57:20.765Z,66.43
2022-11-12T22:00:41.566Z,66.42
2022-11-12T22:03:48.437Z,66.57
2022-11-12T22:06:54.457Z,66.55
2022-11-12T22:10:00.163Z,66.43
2022-11-12T22:13:25.888Z,66.45
2022-11-12T22:16:31.560Z,66.53
2022-11-12T22:19:39.141Z,66.51
2022-11-12T22:22:44.758Z,66.46
2022-11-12T22:25:50.759Z,66.49
2022-11-12T22:28:58.018Z,66.69
2022-11-12T22:32:03.688Z,66.59
2022-11-12T22:35:10.948Z,66.60
2022-11-12T22:38:16.530Z,66.55
2022-11-12T22:41:24.362Z,66.62
2022-11-12T22:44:29.968Z,66.65
2022-11-12T22:47:35.632Z,66.73
2022-11-12T22:50:41.301Z,66.72
2022-11-12T22:53:47.250Z,66.64
2022-11-12T22:56:52.849Z,66.69
2022-11-12T22:59:58.701Z,66.59
2022-11-12T23:03:04.326Z,66.71
2022-11-12T23:06:10.263Z,66.67
2022-11-12T23:09:18.524Z,66.61
2022-11-12T23:12:24.143Z,66.62
2022-11-12T23:15:32.590Z,66.51
2022-11-12T23:18:38.298Z,66.70
2022-11-12T23:21:43.947Z,66.80
2022-11-12T23:24:49.569Z,66.88
2022-11-12T23:27:55.795Z,67.01
2022-11-12T23:30:59.877Z,67.01
2022-11-12T23:34:05.631Z,67.19
2022-11-12T23:37:11.287Z,67.11
2022-11-12T23:40:17.974Z,67.43
2022-11-12T23:43:23.816Z,67.42
2022-11-12T23:46:29.571Z,67.36
2022-11-12T23:49:35.348Z,67.14
2022-11-12T23:52:40.976Z,67.26
2022-11-12T23:55:46.853Z,67.32
2022-11-12T23:58:56.035Z,67.43
